Three Oaks, Michigan
Current Conditions -  °F | °C
As of 7:15 AM on Sunday 25 Jan 2015 (Local Time) from KMGC Reporting Station
Haze Haze  
Wind Chill: 29°   Ceiling: 1800
Heat Index: 34°   Visibility: 5mi
Dew Point: 32°   Wind: 6mph
Humidity: 93%   Direction: 50°NE
Pressure: 29.71"   Gusts: NA
Location:  41.8°N, 86.61°W
Report Text: KMGC 251215Z AUTO 05005KT 5SM BR OVC018 01/00 A2971 RMK AO2
Loading
Personal Weather Stations






























Interactive Weather Map New forecast layout! Learn more

10-Day Weather Forecast

Advertisements
Track Severe Weather on mobile